createdAt,value
2019-04-10T00:01:40.814Z,93.10
2019-04-10T00:04:10.877Z,93.20
2019-04-10T00:06:41.579Z,93.30
2019-04-10T00:09:11.905Z,93.30
2019-04-10T00:11:43.167Z,93.00
2019-04-10T00:14:14.590Z,93.10
2019-04-10T00:16:46.710Z,93.40
2019-04-10T00:19:17.066Z,93.40
2019-04-10T00:21:47.486Z,93.30
2019-04-10T00:24:17.799Z,93.20
2019-04-10T00:26:48.083Z,93.10
2019-04-10T00:29:18.308Z,93.40
2019-04-10T00:31:48.795Z,93.50
2019-04-10T00:34:19.066Z,93.60
2019-04-10T00:36:49.310Z,93.80
2019-04-10T00:39:20.122Z,94.10
2019-04-10T00:41:50.679Z,94.30
2019-04-10T00:44:21.631Z,94.50
2019-04-10T00:46:52.782Z,94.30
2019-04-10T00:49:23.959Z,94.40
2019-04-10T00:51:55.383Z,94.40
2019-04-10T00:54:26.918Z,94.30
2019-04-10T00:56:57.136Z,94.80
2019-04-10T00:59:28.214Z,94.70
2019-04-10T01:01:58.565Z,94.80
2019-04-10T01:04:28.786Z,94.90
2019-04-10T01:07:00.115Z,95.10
2019-04-10T01:09:31.147Z,95.40
2019-04-10T01:12:01.641Z,95.60
2019-04-10T01:14:33.978Z,95.90
2019-04-10T01:17:04.213Z,96.20
2019-04-10T01:19:34.793Z,96.30
2019-04-10T01:22:04.954Z,96.20
2019-04-10T01:24:35.534Z,96.40
2019-04-10T01:27:07.640Z,96.60
2019-04-10T01:29:38.083Z,96.60
2019-04-10T01:32:09.773Z,97.00
2019-04-10T01:34:40.054Z,97.00
2019-04-10T01:37:12.332Z,97.30
2019-04-10T01:39:42.661Z,97.50
2019-04-10T01:42:12.861Z,97.70
2019-04-10T01:44:43.117Z,97.60
2019-04-10T01:47:13.293Z,97.60
2019-04-10T01:49:43.957Z,97.60
2019-04-10T01:52:15.081Z,97.80
2019-04-10T01:54:45.692Z,97.60
2019-04-10T01:57:16.687Z,97.70
2019-04-10T01:59:47.846Z,98.00
2019-04-10T02:02:27.651Z,98.30
2019-04-10T02:04:58.456Z,98.40
2019-04-10T02:07:29.846Z,98.40
2019-04-10T02:10:01.489Z,98.70
2019-04-10T02:12:31.875Z,98.80
2019-04-10T02:15:04.843Z,98.70
2019-04-10T02:17:35.254Z,98.60
2019-04-10T02:20:06.819Z,99.10
2019-04-10T02:22:38.378Z,98.80
2019-04-10T02:25:08.946Z,98.90
2019-04-10T02:27:39.097Z,99.00
2019-04-10T02:30:12.012Z,99.10
2019-04-10T02:32:45.147Z,99.20
2019-04-10T02:35:17.192Z,99.20
2019-04-10T02:37:49.345Z,99.20
2019-04-10T02:40:19.252Z,99.40
2019-04-10T02:42:51.232Z,99.60
2019-04-10T02:45:21.924Z,99.60
2019-04-10T02:47:52.878Z,99.80
2019-04-10T02:50:25.108Z,99.40
2019-04-10T02:52:55.622Z,99.60
2019-04-10T02:55:27.342Z,99.60
2019-04-10T02:57:58.768Z,99.70
2019-04-10T03:00:30.328Z,99.70
2019-04-10T03:03:01.344Z,99.90
2019-04-10T03:05:32.599Z,99.90
2019-04-10T03:08:04.857Z,99.90
2019-04-10T03:10:41.853Z,99.90
2019-04-10T03:13:08.948Z,99.90
2019-04-10T03:15:40.945Z,99.90
2019-04-10T03:18:11.179Z,99.90
2019-04-10T03:20:42.732Z,99.90
2019-04-10T03:23:13.509Z,99.90
2019-04-10T03:25:43.944Z,99.90
2019-04-10T03:28:14.592Z,99.90
2019-04-10T03:30:46.489Z,99.90
2019-04-10T03:33:44.197Z,99.90
2019-04-10T03:36:11.412Z,99.90
2019-04-10T03:38:52.728Z,99.90
2019-04-10T03:41:13.613Z,99.90
2019-04-10T03:43:43.871Z,99.90
2019-04-10T03:46:14.186Z,99.90
2019-04-10T03:48:45.216Z,99.90
2019-04-10T03:51:16.486Z,99.90
2019-04-10T03:53:46.933Z,99.90
2019-04-10T03:56:17.954Z,99.90
2019-04-10T03:58:49.439Z,99.90
2019-04-10T04:01:19.918Z,99.90
2019-04-10T04:03:51.100Z,99.90
2019-04-10T04:06:21.702Z,99.90
2019-04-10T04:09:05.214Z,99.90
2019-04-10T04:11:23.986Z,99.90
2019-04-10T04:13:55.595Z,99.90
2019-04-10T04:16:26.788Z,99.90
2019-04-10T04:18:57.663Z,99.90
2019-04-10T04:21:28.087Z,99.90
2019-04-10T04:23:59.441Z,99.90
2019-04-10T04:26:29.813Z,99.90
2019-04-10T04:29:00.030Z,99.90
2019-04-10T04:31:31.213Z,99.90
2019-04-10T04:34:01.946Z,99.90
2019-04-10T04:36:33.027Z,99.90
2019-04-10T04:39:17.956Z,99.90
2019-04-10T04:41:40.038Z,99.90
2019-04-10T04:44:10.527Z,99.90
2019-04-10T04:46:40.778Z,99.90
2019-04-10T04:49:11.532Z,99.90
2019-04-10T04:51:41.950Z,99.90
2019-04-10T04:54:12.949Z,99.90
2019-04-10T04:56:44.162Z,99.90
2019-04-10T04:59:14.458Z,99.90
2019-04-10T05:01:44.762Z,99.90
2019-04-10T05:04:15.231Z,99.90
2019-04-10T05:06:48.429Z,99.90
2019-04-10T05:09:29.868Z,99.90
2019-04-10T05:11:51.053Z,99.90
2019-04-10T05:14:21.700Z,99.90
2019-04-10T05:16:52.104Z,99.90
2019-04-10T05:19:22.289Z,99.90
2019-04-10T05:21:52.499Z,99.90
2019-04-10T05:24:22.815Z,99.90
2019-04-10T05:26:53.531Z,99.90
2019-04-10T05:29:24.965Z,99.80
2019-04-10T05:31:55.244Z,99.70
2019-04-10T05:34:25.549Z,99.20
2019-04-10T05:36:56.829Z,99.10
2019-04-10T05:39:39.196Z,98.90
2019-04-10T05:42:04.269Z,98.30
2019-04-10T05:44:34.503Z,98.20
2019-04-10T05:47:05.371Z,97.70
2019-04-10T05:49:35.711Z,97.70
2019-04-10T05:52:06.121Z,97.20
2019-04-10T05:54:37.410Z,96.80
2019-04-10T05:57:08.345Z,96.40
2019-04-10T05:59:38.606Z,95.90
2019-04-10T06:02:09.419Z,96.10
2019-04-10T06:04:39.749Z,95.60
2019-04-10T06:07:10.684Z,95.00
2019-04-10T06:09:51.921Z,95.30
2019-04-10T06:12:13.942Z,94.30
2019-04-10T06:14:44.262Z,94.10
2019-04-10T06:17:16.434Z,93.90
2019-04-10T06:19:46.895Z,93.50
2019-04-10T06:22:17.055Z,93.20
2019-04-10T06:24:47.257Z,92.30
2019-04-10T06:27:18.416Z,92.70
2019-04-10T06:29:48.984Z,92.10
2019-04-10T06:32:19.226Z,92.40
2019-04-10T06:34:50.227Z,92.10
2019-04-10T06:37:20.492Z,91.70
2019-04-10T06:39:51.156Z,91.80
2019-04-10T06:42:22.477Z,91.00
2019-04-10T06:44:52.883Z,91.10
2019-04-10T06:47:24.304Z,90.90
2019-04-10T06:49:55.451Z,90.40
2019-04-10T06:52:26.912Z,90.20
2019-04-10T06:54:57.374Z,90.20
2019-04-10T06:57:27.544Z,89.80
2019-04-10T06:59:59.730Z,89.70
2019-04-10T07:02:32.350Z,88.30
2019-04-10T07:05:06.253Z,88.30
2019-04-10T07:07:45.234Z,87.60
2019-04-10T07:10:21.514Z,88.20
2019-04-10T07:12:39.739Z,85.90
2019-04-10T07:15:10.886Z,85.60
2019-04-10T07:17:41.874Z,85.00
2019-04-10T07:20:15.367Z,82.70
2019-04-10T07:22:46.645Z,83.20
2019-04-10T07:25:16.475Z,82.90
2019-04-10T07:27:46.543Z,81.60
2019-04-10T07:30:17.435Z,81.50
2019-04-10T07:32:49.101Z,80.70
2019-04-10T07:35:21.697Z,77.90
2019-04-10T07:37:54.264Z,76.20
2019-04-10T07:40:23.314Z,76.20
2019-04-10T07:42:54.561Z,77.80
2019-04-10T07:45:27.328Z,76.70
2019-04-10T07:47:57.683Z,77.30
2019-04-10T07:50:28.188Z,77.30
2019-04-10T07:52:58.374Z,76.90
2019-04-10T07:55:28.839Z,76.70
2019-04-10T07:57:59.291Z,78.40
2019-04-10T08:00:29.467Z,76.80
2019-04-10T08:02:59.650Z,77.90
2019-04-10T08:05:29.758Z,75.70
2019-04-10T08:08:00.857Z,77.00
2019-04-10T08:10:31.268Z,77.30
2019-04-10T08:13:02.385Z,77.40
2019-04-10T08:15:33.631Z,77.80
2019-04-10T08:18:04.550Z,75.00
2019-04-10T08:20:35.032Z,74.70
2019-04-10T08:23:07.410Z,75.90
2019-04-10T08:25:37.216Z,76.00
2019-04-10T08:28:07.578Z,75.40
2019-04-10T08:30:39.793Z,75.10
2019-04-10T08:33:10.147Z,75.10
2019-04-10T08:35:40.214Z,76.10
2019-04-10T08:38:10.793Z,76.10
2019-04-10T08:40:41.427Z,74.30
2019-04-10T08:43:11.833Z,72.60
2019-04-10T08:45:48.490Z,71.70
2019-04-10T08:48:15.558Z,71.00
2019-04-10T08:50:46.173Z,69.70
2019-04-10T08:53:18.040Z,69.40
2019-04-10T08:55:48.534Z,70.10
2019-04-10T08:58:18.870Z,68.70
2019-04-10T09:00:52.385Z,70.10
2019-04-10T09:03:22.486Z,71.40
2019-04-10T09:05:53.776Z,68.40
2019-04-10T09:08:24.595Z,68.70
2019-04-10T09:10:55.133Z,67.90
2019-04-10T09:13:25.382Z,68.30
2019-04-10T09:15:56.721Z,69.60
2019-04-10T09:18:27.408Z,68.10
2019-04-10T09:20:57.701Z,67.60
2019-04-10T09:23:37.921Z,68.20
2019-04-10T09:25:59.762Z,66.90
2019-04-10T09:28:30.694Z,65.60
2019-04-10T09:31:01.759Z,67.50
2019-04-10T09:33:32.418Z,64.10
2019-04-10T09:36:02.794Z,64.80
2019-04-10T09:38:33.042Z,65.60
2019-04-10T09:41:03.736Z,64.40
2019-04-10T09:43:34.101Z,64.70
2019-04-10T09:46:06.294Z,63.50
2019-04-10T09:48:37.875Z,62.20
2019-04-10T09:51:08.222Z,60.50
2019-04-10T09:53:39.171Z,63.50
2019-04-10T09:56:09.545Z,61.80
2019-04-10T09:58:40.549Z,61.10
2019-04-10T10:01:15.141Z,63.50
2019-04-10T10:03:46.599Z,63.20
2019-04-10T10:06:24.361Z,61.50
2019-04-10T10:08:48.666Z,62.90
2019-04-10T10:11:20.120Z,60.90
2019-04-10T10:13:50.497Z,59.30
2019-04-10T10:16:20.983Z,58.50
2019-04-10T10:18:51.973Z,59.10
2019-04-10T10:21:22.330Z,59.20
2019-04-10T10:23:52.570Z,60.50
2019-04-10T10:26:23.867Z,59.30
2019-04-10T10:28:54.608Z,58.30
2019-04-10T10:31:24.793Z,59.60
2019-04-10T10:33:55.108Z,58.80
2019-04-10T10:36:34.734Z,57.00
2019-04-10T10:39:07.117Z,57.90
2019-04-10T10:41:29.858Z,57.50
2019-04-10T10:44:00.613Z,56.40
2019-04-10T10:46:31.458Z,55.90
2019-04-10T10:49:02.296Z,54.30
2019-04-10T10:51:32.971Z,55.40
2019-04-10T10:54:04.498Z,53.90
2019-04-10T10:56:36.193Z,56.50
2019-04-10T10:59:06.457Z,56.10
2019-04-10T11:01:36.658Z,55.40
2019-04-10T11:04:06.853Z,53.40
2019-04-10T11:06:49.784Z,51.30
2019-04-10T11:09:13.624Z,54.40
2019-04-10T11:11:45.045Z,52.80
2019-04-10T11:14:15.726Z,52.00
2019-04-10T11:16:45.845Z,52.60
2019-04-10T11:19:17.153Z,52.20
2019-04-10T11:21:47.547Z,51.60
2019-04-10T11:24:17.765Z,50.00
2019-04-10T11:26:47.970Z,50.50
2019-04-10T11:29:19.314Z,48.80
2019-04-10T11:31:49.703Z,48.50
2019-04-10T11:34:19.975Z,49.90
2019-04-10T11:37:11.074Z,50.40
2019-04-10T11:39:26.119Z,50.90
2019-04-10T11:41:55.258Z,51.50
2019-04-10T11:44:27.511Z,51.90
2019-04-10T11:46:58.748Z,53.10
2019-04-10T11:49:31.047Z,50.10
2019-04-10T11:52:01.802Z,51.90
2019-04-10T11:54:37.590Z,50.20
2019-04-10T11:57:06.760Z,48.00
2019-04-10T11:59:38.403Z,46.40
2019-04-10T12:02:10.122Z,48.60
2019-04-10T12:04:50.682Z,49.20
2019-04-10T12:07:49.152Z,50.40
2019-04-10T12:12:17.387Z,51.30
2019-04-10T12:14:47.906Z,51.10
2019-04-10T12:17:18.221Z,48.50
2019-04-10T12:19:48.746Z,47.80
2019-04-10T12:22:21.250Z,47.60
2019-04-10T12:24:51.728Z,49.90
2019-04-10T12:27:23.023Z,49.30
2019-04-10T12:29:53.362Z,50.20
2019-04-10T12:32:23.611Z,50.10
2019-04-10T12:34:53.806Z,47.90
2019-04-10T12:37:24.114Z,48.00
2019-04-10T12:39:55.254Z,48.30
2019-04-10T12:42:25.443Z,48.60
2019-04-10T12:44:55.674Z,51.10
2019-04-10T12:47:25.974Z,49.10
2019-04-10T12:49:56.919Z,48.80
2019-04-10T12:52:27.564Z,48.80
2019-04-10T12:54:57.766Z,49.90
2019-04-10T12:57:28.635Z,49.60
2019-04-10T13:00:01.532Z,49.50
2019-04-10T13:02:30.746Z,49.30
2019-04-10T13:05:01.033Z,49.90
2019-04-10T13:07:32.434Z,50.90
2019-04-10T13:10:02.717Z,51.00
2019-04-10T13:12:33.334Z,50.60
2019-04-10T13:15:03.642Z,50.30
2019-04-10T13:17:34.991Z,50.30
2019-04-10T13:20:09.365Z,49.70
2019-04-10T13:22:40.734Z,49.50
2019-04-10T13:25:12.602Z,48.50
2019-04-10T13:27:43.172Z,50.00
2019-04-10T13:30:14.729Z,49.80
2019-04-10T13:32:45.078Z,50.40
2019-04-10T13:35:15.807Z,52.10
2019-04-10T13:37:46.065Z,51.00
2019-04-10T13:40:16.274Z,50.10
2019-04-10T13:42:47.395Z,49.30
2019-04-10T13:45:19.365Z,48.80
2019-04-10T13:47:49.716Z,49.60
2019-04-10T13:50:19.999Z,49.90
2019-04-10T13:52:52.656Z,50.80
2019-04-10T13:55:24.190Z,50.90
2019-04-10T13:57:55.037Z,51.60
2019-04-10T14:00:38.416Z,52.40
2019-04-10T14:03:08.819Z,53.20
2019-04-10T14:05:39.108Z,51.80
2019-04-10T14:08:10.457Z,53.00
2019-04-10T14:10:41.787Z,53.60
2019-04-10T14:13:14.365Z,52.80
2019-04-10T14:15:44.550Z,52.70
2019-04-10T14:18:14.741Z,52.40
2019-04-10T14:20:45.711Z,53.00
2019-04-10T14:23:22.286Z,52.60
2019-04-10T14:26:12.629Z,54.30
2019-04-10T14:28:43.096Z,54.80
2019-04-10T14:31:20.164Z,55.00
2019-04-10T14:33:50.970Z,55.80
2019-04-10T14:36:22.419Z,56.60
2019-04-10T14:38:52.845Z,57.80
2019-04-10T14:41:24.786Z,57.90
2019-04-10T14:43:55.675Z,59.30
2019-04-10T14:46:26.295Z,59.00
2019-04-10T14:48:56.655Z,58.90
2019-04-10T14:51:26.781Z,59.50
2019-04-10T14:53:57.473Z,59.30
2019-04-10T14:56:28.341Z,60.00
2019-04-10T14:58:59.734Z,60.00
2019-04-10T15:01:30.975Z,60.30
2019-04-10T15:04:02.398Z,60.10
2019-04-10T15:06:33.392Z,60.10
2019-04-10T15:09:06.258Z,61.20
2019-04-10T15:11:40.579Z,61.20
2019-04-10T15:14:13.546Z,61.90
2019-04-10T15:16:53.414Z,63.40
2019-04-10T15:19:18.489Z,63.30
2019-04-10T15:21:49.234Z,63.70
2019-04-10T15:24:19.772Z,63.40
2019-04-10T15:26:50.955Z,62.70
2019-04-10T15:29:22.632Z,63.60
2019-04-10T15:31:53.043Z,63.60
2019-04-10T15:34:23.311Z,64.10
2019-04-10T15:36:54.582Z,63.80
2019-04-10T15:39:32.130Z,64.00
2019-04-10T15:41:57.468Z,64.50
2019-04-10T15:44:27.995Z,64.50
2019-04-10T15:47:08.702Z,65.50
2019-04-10T15:49:30.919Z,66.10
2019-04-10T15:52:01.620Z,66.00
2019-04-10T15:54:33.962Z,66.10
2019-04-10T15:57:04.701Z,67.20
2019-04-10T15:59:35.106Z,67.30
2019-04-10T16:02:05.708Z,68.00
2019-04-10T16:04:36.029Z,68.10
2019-04-10T16:07:06.365Z,68.10
2019-04-10T16:09:46.413Z,69.00
2019-04-10T16:12:11.765Z,69.10
2019-04-10T16:14:42.964Z,69.00
2019-04-10T16:17:39.695Z,69.90
2019-04-10T16:20:21.755Z,70.10
2019-04-10T16:23:00.822Z,71.10
2019-04-10T16:25:31.108Z,71.60
2019-04-10T16:28:04.197Z,72.30
2019-04-10T16:30:34.973Z,72.90
2019-04-10T16:33:07.004Z,73.00
2019-04-10T16:35:38.398Z,73.20
2019-04-10T16:38:08.845Z,74.10
2019-04-10T16:40:40.401Z,73.80
2019-04-10T16:43:11.656Z,74.40
2019-04-10T16:45:42.508Z,75.70
2019-04-10T16:48:13.114Z,74.80
2019-04-10T16:50:43.669Z,75.50
2019-04-10T16:53:14.428Z,75.10
2019-04-10T16:55:45.057Z,76.10
2019-04-10T16:58:15.887Z,76.40
2019-04-10T17:00:47.438Z,77.00
2019-04-10T17:03:17.958Z,77.90
2019-04-10T17:05:48.189Z,78.40
2019-04-10T17:08:19.690Z,79.30
2019-04-10T17:10:50.569Z,78.80
2019-04-10T17:13:20.990Z,79.30
2019-04-10T17:15:53.396Z,80.40
2019-04-10T17:18:24.861Z,80.20
2019-04-10T17:20:55.674Z,79.70
2019-04-10T17:23:26.843Z,79.80
2019-04-10T17:25:58.270Z,78.90
2019-04-10T17:28:28.655Z,79.40
2019-04-10T17:31:00.177Z,79.40
2019-04-10T17:33:30.380Z,80.80
2019-04-10T17:36:00.561Z,80.60
2019-04-10T17:38:30.943Z,80.20
2019-04-10T17:41:04.163Z,80.80
2019-04-10T17:43:33.416Z,82.20
2019-04-10T17:46:03.744Z,81.90
2019-04-10T17:48:34.862Z,82.20
2019-04-10T17:51:06.156Z,82.10
2019-04-10T17:53:37.637Z,83.00
2019-04-10T17:56:08.940Z,83.60
2019-04-10T17:58:39.201Z,83.40
2019-04-10T18:01:14.565Z,83.30
2019-04-10T18:03:51.635Z,83.10
2019-04-10T18:06:18.077Z,83.50
2019-04-10T18:08:49.312Z,83.00
2019-04-10T18:11:20.320Z,83.70
2019-04-10T18:13:51.103Z,84.00
2019-04-10T18:16:22.607Z,83.90
2019-04-10T18:18:54.037Z,83.40
2019-04-10T18:21:25.319Z,83.70
2019-04-10T18:23:55.792Z,83.10
2019-04-10T18:26:26.173Z,83.70
2019-04-10T18:28:56.410Z,83.40
2019-04-10T18:31:27.887Z,83.90
2019-04-10T18:33:58.780Z,84.70
2019-04-10T18:36:29.896Z,84.20
2019-04-10T18:39:01.814Z,83.80
2019-04-10T18:41:33.920Z,83.70
2019-04-10T18:44:04.753Z,84.50
2019-04-10T18:46:35.474Z,84.70
2019-04-10T18:49:05.691Z,84.50
2019-04-10T18:51:36.244Z,85.10
2019-04-10T18:54:06.517Z,85.30
2019-04-10T18:56:37.547Z,85.00
2019-04-10T18:59:14.837Z,85.40
2019-04-10T19:02:03.245Z,85.90
2019-04-10T19:04:43.260Z,86.20
2019-04-10T19:07:13.734Z,86.90
2019-04-10T19:09:44.790Z,85.90
2019-04-10T19:12:15.255Z,86.20
2019-04-10T19:14:46.617Z,86.50
2019-04-10T19:17:17.521Z,86.60
2019-04-10T19:19:48.538Z,87.30
2019-04-10T19:22:20.339Z,87.40
2019-04-10T19:24:50.642Z,87.20
2019-04-10T19:27:22.094Z,87.20
2019-04-10T19:29:52.826Z,87.50
2019-04-10T19:32:33.238Z,86.80
2019-04-10T19:35:04.652Z,87.50
2019-04-10T19:37:36.859Z,87.70
2019-04-10T19:40:09.073Z,88.10
2019-04-10T19:42:39.785Z,88.10
2019-04-10T19:45:10.181Z,87.70
2019-04-10T19:47:40.418Z,87.00
2019-04-10T19:50:11.098Z,86.30
2019-04-10T19:52:41.425Z,87.20
2019-04-10T19:55:13.582Z,88.00
2019-04-10T19:57:45.659Z,87.90
2019-04-10T20:00:19.939Z,88.20
2019-04-10T20:02:51.088Z,88.10
2019-04-10T20:05:23.368Z,88.30
2019-04-10T20:07:53.662Z,89.00
2019-04-10T20:10:23.820Z,88.70
2019-04-10T20:12:55.043Z,88.30
2019-04-10T20:15:26.610Z,88.70
2019-04-10T20:17:57.034Z,88.90
2019-04-10T20:20:27.218Z,88.60
2019-04-10T20:22:58.290Z,88.30
2019-04-10T20:25:28.572Z,89.10
2019-04-10T20:27:58.827Z,89.10
2019-04-10T20:30:30.839Z,89.60
2019-04-10T20:33:01.040Z,89.80
2019-04-10T20:35:32.046Z,90.40
2019-04-10T20:38:03.065Z,90.80
2019-04-10T20:40:33.962Z,91.20
2019-04-10T20:43:04.808Z,91.10
2019-04-10T20:45:35.765Z,91.30
2019-04-10T20:48:06.561Z,91.40
2019-04-10T20:50:36.879Z,91.50
2019-04-10T20:53:07.511Z,91.70
2019-04-10T20:55:38.114Z,92.10
2019-04-10T20:58:09.115Z,92.30
2019-04-10T21:00:43.252Z,92.60
2019-04-10T21:03:15.532Z,92.90
2019-04-10T21:05:46.498Z,93.00
2019-04-10T21:08:17.909Z,93.30
2019-04-10T21:10:49.317Z,93.50
2019-04-10T21:13:19.593Z,93.50
2019-04-10T21:15:51.464Z,93.70
2019-04-10T21:18:23.692Z,93.90
2019-04-10T21:20:54.154Z,93.90
2019-04-10T21:23:25.356Z,93.90
2019-04-10T21:25:55.682Z,93.70
2019-04-10T21:28:26.028Z,93.80
2019-04-10T21:31:27.535Z,94.40
2019-04-10T21:34:12.038Z,94.40
2019-04-10T21:36:43.432Z,94.40
2019-04-10T21:39:13.819Z,94.70
2019-04-10T21:41:44.565Z,94.80
2019-04-10T21:44:16.036Z,95.00
2019-04-10T21:46:46.675Z,95.10
2019-04-10T21:49:16.990Z,95.10
2019-04-10T21:51:47.270Z,95.30
2019-04-10T21:54:18.503Z,95.40
2019-04-10T21:56:49.389Z,95.40
2019-04-10T21:59:20.489Z,95.70
2019-04-10T22:01:50.871Z,96.00
2019-04-10T22:04:21.707Z,95.80
2019-04-10T22:07:04.162Z,95.90
2019-04-10T22:09:41.486Z,96.00
2019-04-10T22:12:25.936Z,96.10
2019-04-10T22:14:50.347Z,96.30
2019-04-10T22:17:20.758Z,96.70
2019-04-10T22:19:51.182Z,96.60
2019-04-10T22:22:22.472Z,96.60
2019-04-10T22:24:52.949Z,96.80
2019-04-10T22:27:23.367Z,97.00
2019-04-10T22:29:54.324Z,97.00
2019-04-10T22:32:26.851Z,96.80
2019-04-10T22:34:57.287Z,97.00
2019-04-10T22:37:27.809Z,97.20
2019-04-10T22:39:58.661Z,97.30
2019-04-10T22:42:40.144Z,97.40
2019-04-10T22:45:02.460Z,97.30
2019-04-10T22:47:34.212Z,97.20
2019-04-10T22:50:04.986Z,97.70
2019-04-10T22:52:35.210Z,97.70
2019-04-10T22:55:05.500Z,98.10
2019-04-10T22:57:36.842Z,98.10
2019-04-10T23:00:07.689Z,98.10
2019-04-10T23:02:39.799Z,98.20
2019-04-10T23:05:10.179Z,98.00
2019-04-10T23:07:40.353Z,97.90
2019-04-10T23:10:13.213Z,98.50
2019-04-10T23:12:57.128Z,98.60
2019-04-10T23:15:17.582Z,98.60
2019-04-10T23:17:48.664Z,98.70
2019-04-10T23:20:19.069Z,98.90
2019-04-10T23:22:50.498Z,99.10
2019-04-10T23:25:20.922Z,99.10
2019-04-10T23:27:53.460Z,99.20
2019-04-10T23:30:23.078Z,99.30
2019-04-10T23:32:53.555Z,99.30
2019-04-10T23:35:23.954Z,99.30
2019-04-10T23:37:55.195Z,99.30
2019-04-10T23:40:25.580Z,99.40
2019-04-10T23:43:05.768Z,99.40
2019-04-10T23:45:38.058Z,99.30
2019-04-10T23:48:08.759Z,99.30
2019-04-10T23:50:39.107Z,99.20
2019-04-10T23:53:09.350Z,99.30
2019-04-10T23:55:39.865Z,99.40
2019-04-10T23:58:10.179Z,99.40
